Toppenish, Washington
Current Conditions -  °F | °C
As of 10:53 PM on Thursday 18 Dec 2014 (Local Time) from KYKM Reporting Station
Overcast Overcast  
Wind Chill: 39°   Ceiling: 400
Heat Index: 39°   Visibility: 7mi
Dew Point: 36°   Wind: 3mph
Humidity: 89%   Direction: 70°ENE
Pressure: 29.89"   Gusts: NA
Location:  46.38°N, 120.31°W
Report Text: KYKM 190653Z AUTO 07003KT 7SM BKN004 OVC008 04/02 A2989 RMK AO2 RAB03E34 CIG 002V007 SLP129 P0001 T00390022
Loading
Personal Weather Stations






























Interactive Weather Map New forecast layout! Learn more

10-Day Weather Forecast

Advertisements
Track Severe Weather on mobile